createdAt,value
2018-07-30T00:02:23.491Z,3.10
2018-07-30T00:04:52.543Z,3.20
2018-07-30T00:07:21.625Z,3.00
2018-07-30T00:09:50.800Z,3.23
2018-07-30T00:12:19.871Z,3.30
2018-07-30T00:14:48.924Z,3.67
2018-07-30T00:17:17.767Z,3.63
2018-07-30T00:19:46.700Z,3.20
2018-07-30T00:22:15.803Z,3.77
2018-07-30T00:24:44.868Z,3.70
2018-07-30T00:27:13.934Z,3.80
2018-07-30T00:29:42.987Z,3.57
2018-07-30T00:32:12.060Z,3.70
2018-07-30T00:34:41.118Z,3.60
2018-07-30T00:37:10.298Z,3.53
2018-07-30T00:39:39.347Z,3.57
2018-07-30T00:42:08.463Z,3.23
2018-07-30T00:44:37.523Z,3.50
2018-07-30T00:47:06.595Z,3.70
2018-07-30T00:49:35.660Z,3.13
2018-07-30T00:52:04.898Z,3.60
2018-07-30T00:54:33.951Z,3.47
2018-07-30T00:57:03.016Z,3.80
2018-07-30T00:59:32.065Z,3.80
2018-07-30T01:02:01.137Z,3.60
2018-07-30T01:04:30.182Z,3.60
2018-07-30T01:06:59.251Z,3.30
2018-07-30T01:09:28.316Z,3.83
2018-07-30T01:12:00.061Z,4.00
2018-07-30T01:14:29.167Z,3.70
2018-07-30T01:16:58.243Z,3.40
2018-07-30T01:19:27.295Z,3.70
2018-07-30T01:21:56.111Z,3.70
2018-07-30T01:24:25.044Z,3.83
2018-07-30T01:26:54.114Z,3.87
2018-07-30T01:29:23.172Z,3.60
2018-07-30T01:31:52.245Z,3.43
2018-07-30T01:34:21.291Z,3.77
2018-07-30T01:36:50.367Z,4.03
2018-07-30T01:39:19.427Z,3.53
2018-07-30T01:41:48.487Z,3.87
2018-07-30T01:44:17.568Z,4.10
2018-07-30T01:46:46.648Z,3.70
2018-07-30T01:49:15.727Z,4.23
2018-07-30T01:51:44.526Z,3.93
2018-07-30T01:54:13.462Z,4.00
2018-07-30T01:56:42.524Z,4.07
2018-07-30T01:59:11.591Z,3.90
2018-07-30T02:01:40.644Z,4.20
2018-07-30T02:04:09.722Z,4.00
2018-07-30T02:06:38.776Z,3.97
2018-07-30T02:09:09.684Z,3.83
2018-07-30T02:11:38.860Z,3.67
2018-07-30T02:14:08.393Z,3.97
2018-07-30T02:16:37.467Z,4.00
2018-07-30T02:19:06.545Z,3.80
2018-07-30T02:21:35.606Z,4.00
2018-07-30T02:24:04.680Z,4.37
2018-07-30T02:26:33.736Z,4.37
2018-07-30T02:29:02.803Z,4.13
2018-07-30T02:31:31.852Z,4.10
2018-07-30T02:34:00.926Z,4.33
2018-07-30T02:36:29.988Z,4.13
2018-07-30T02:38:59.067Z,4.40
2018-07-30T02:41:28.108Z,3.97
2018-07-30T02:43:57.191Z,4.30
2018-07-30T02:46:25.987Z,3.70
2018-07-30T02:48:54.928Z,4.00
2018-07-30T02:51:23.976Z,3.73
2018-07-30T02:53:53.049Z,4.13
2018-07-30T02:56:22.091Z,4.17
2018-07-30T02:58:51.311Z,4.70
2018-07-30T03:01:20.368Z,4.50
2018-07-30T03:03:49.435Z,4.70
2018-07-30T03:06:18.507Z,4.57
2018-07-30T03:08:47.567Z,4.37
2018-07-30T03:11:16.624Z,4.60
2018-07-30T03:13:45.832Z,4.57
2018-07-30T03:16:14.779Z,4.63
2018-07-30T03:18:43.871Z,4.70
2018-07-30T03:21:12.940Z,4.83
2018-07-30T03:23:42.091Z,4.60
2018-07-30T03:26:11.163Z,4.77
2018-07-30T03:28:40.228Z,4.63
2018-07-30T03:31:09.296Z,4.63
2018-07-30T03:33:38.346Z,4.80
2018-07-30T03:36:07.425Z,4.70
2018-07-30T03:38:36.472Z,4.47
2018-07-30T03:41:05.827Z,4.90
2018-07-30T03:43:34.884Z,4.73
2018-07-30T03:46:03.699Z,4.83
2018-07-30T03:48:32.619Z,4.93
2018-07-30T03:51:01.687Z,5.17
2018-07-30T03:53:30.744Z,4.63
2018-07-30T03:55:59.851Z,4.90
2018-07-30T03:58:28.903Z,4.67
2018-07-30T04:00:57.971Z,4.77
2018-07-30T04:03:27.028Z,5.00
2018-07-30T04:05:56.128Z,5.10
2018-07-30T04:08:25.203Z,4.63
2018-07-30T04:10:54.347Z,4.50
2018-07-30T04:13:23.167Z,4.77
2018-07-30T04:15:52.127Z,5.00
2018-07-30T04:18:21.179Z,5.30
2018-07-30T04:20:50.257Z,5.50
2018-07-30T04:23:19.319Z,5.30
2018-07-30T04:25:48.393Z,5.27
2018-07-30T04:28:17.435Z,5.10
2018-07-30T04:30:46.505Z,5.20
2018-07-30T04:33:15.311Z,5.00
2018-07-30T04:35:44.256Z,5.60
2018-07-30T04:38:13.312Z,5.60
2018-07-30T04:40:42.374Z,5.30
2018-07-30T04:43:11.171Z,6.00
2018-07-30T04:45:40.115Z,6.00
2018-07-30T04:48:09.200Z,6.00
2018-07-30T04:50:38.355Z,5.40
2018-07-30T04:53:07.939Z,5.73
2018-07-30T04:55:36.883Z,6.30
2018-07-30T04:58:05.939Z,6.27
2018-07-30T05:00:34.762Z,6.07
2018-07-30T05:03:07.475Z,5.83
2018-07-30T05:05:38.004Z,6.23
2018-07-30T05:08:07.184Z,6.50
2018-07-30T05:10:36.255Z,5.97
2018-07-30T05:13:05.335Z,6.60
2018-07-30T05:15:34.131Z,6.20
2018-07-30T05:18:03.096Z,6.30
2018-07-30T05:20:32.158Z,6.30
2018-07-30T05:23:01.225Z,5.77
2018-07-30T05:25:30.292Z,5.90
2018-07-30T05:27:59.123Z,5.93
2018-07-30T05:30:27.802Z,6.50
2018-07-30T05:32:56.752Z,5.53
2018-07-30T05:35:25.802Z,5.90
2018-07-30T05:37:54.897Z,6.30
2018-07-30T05:40:23.952Z,5.80
2018-07-30T05:42:53.345Z,6.03
2018-07-30T05:45:22.390Z,5.70
2018-07-30T05:47:51.459Z,6.00
2018-07-30T05:50:20.508Z,5.60
2018-07-30T05:52:49.576Z,5.70
2018-07-30T05:55:18.644Z,5.40
2018-07-30T05:57:47.459Z,5.53
2018-07-30T06:00:16.132Z,4.50
2018-07-30T06:02:45.124Z,5.30
2018-07-30T06:05:13.935Z,5.60
2018-07-30T06:07:42.619Z,5.73
2018-07-30T06:10:11.543Z,5.87
2018-07-30T06:12:40.629Z,5.67
2018-07-30T06:15:09.696Z,6.50
2018-07-30T06:17:38.778Z,6.17
2018-07-30T06:20:08.759Z,6.00
2018-07-30T06:22:38.047Z,7.20
2018-07-30T06:25:07.143Z,6.93
2018-07-30T06:27:36.651Z,6.90
2018-07-30T06:30:06.747Z,6.70
2018-07-30T06:32:35.824Z,6.57
2018-07-30T06:35:05.076Z,7.10
2018-07-30T06:37:34.131Z,7.30
2018-07-30T06:40:03.224Z,6.57
2018-07-30T06:42:32.546Z,6.97
2018-07-30T06:45:01.614Z,7.30
2018-07-30T06:47:30.659Z,5.90
2018-07-30T06:49:59.732Z,6.40
2018-07-30T06:52:28.781Z,6.10
2018-07-30T06:54:57.870Z,6.17
2018-07-30T06:57:26.919Z,5.63
2018-07-30T06:59:55.983Z,6.57
2018-07-30T07:02:24.788Z,6.37
2018-07-30T07:04:53.719Z,5.83
2018-07-30T07:07:22.792Z,5.03
2018-07-30T07:09:51.856Z,5.23
2018-07-30T07:12:20.655Z,5.50
2018-07-30T07:14:49.596Z,4.50
2018-07-30T07:17:18.667Z,5.53
2018-07-30T07:19:47.736Z,4.90
2018-07-30T07:22:16.794Z,5.03
2018-07-30T07:24:45.865Z,4.70
2018-07-30T07:27:14.918Z,4.53
2018-07-30T07:29:43.726Z,5.17
2018-07-30T07:32:12.652Z,4.40
2018-07-30T07:34:41.720Z,4.60
2018-07-30T07:37:10.776Z,4.50
2018-07-30T07:39:39.848Z,4.00
2018-07-30T07:42:08.919Z,3.57
2018-07-30T07:44:37.989Z,3.40
2018-07-30T07:47:07.380Z,3.60
2018-07-30T07:49:36.444Z,3.60
2018-07-30T07:52:05.520Z,3.37
2018-07-30T07:54:34.591Z,3.60
2018-07-30T07:57:03.655Z,3.70
2018-07-30T07:59:32.739Z,3.43
2018-07-30T08:02:01.795Z,3.80
2018-07-30T08:04:30.854Z,3.97
2018-07-30T08:06:59.924Z,3.60
2018-07-30T08:09:28.980Z,3.73
2018-07-30T08:11:58.045Z,3.47
2018-07-30T08:14:26.835Z,3.40
2018-07-30T08:16:55.800Z,3.73
2018-07-30T08:19:24.853Z,3.10
2018-07-30T08:21:53.924Z,3.33
2018-07-30T08:24:22.981Z,3.30
2018-07-30T08:26:52.068Z,3.33
2018-07-30T08:29:21.115Z,3.33
2018-07-30T08:31:50.192Z,3.03
2018-07-30T08:34:18.991Z,2.85
2018-07-30T08:36:47.940Z,3.07
2018-07-30T08:39:17.001Z,2.83
2018-07-30T08:41:46.070Z,3.25
2018-07-30T08:44:14.868Z,2.95
2018-07-30T08:46:43.815Z,3.37
2018-07-30T08:49:12.864Z,2.92
2018-07-30T08:51:41.927Z,3.05
2018-07-30T08:54:10.980Z,3.20
2018-07-30T08:56:40.049Z,2.80
2018-07-30T08:59:09.097Z,3.10
2018-07-30T09:01:38.203Z,3.30
2018-07-30T09:04:07.264Z,3.05
2018-07-30T09:06:36.336Z,3.02
2018-07-30T09:09:08.100Z,2.80
2018-07-30T09:11:37.437Z,3.27
2018-07-30T09:14:06.728Z,2.80
2018-07-30T09:16:35.820Z,2.58
2018-07-30T09:19:05.319Z,2.98
2018-07-30T09:21:34.383Z,3.00
2018-07-30T09:24:03.545Z,2.90
2018-07-30T09:26:32.483Z,3.00
2018-07-30T09:29:01.283Z,2.83
2018-07-30T09:31:30.035Z,2.80
2018-07-30T09:33:58.967Z,2.90
2018-07-30T09:36:28.045Z,2.60
2018-07-30T09:38:56.851Z,2.80
2018-07-30T09:41:25.784Z,2.80
2018-07-30T09:43:54.857Z,2.70
2018-07-30T09:46:23.912Z,2.87
2018-07-30T09:48:53.258Z,3.10
2018-07-30T09:51:22.315Z,2.75
2018-07-30T09:53:51.131Z,2.77
2018-07-30T09:56:19.889Z,3.08
2018-07-30T09:58:48.796Z,2.70
2018-07-30T10:01:23.380Z,2.80
2018-07-30T10:03:52.495Z,3.17
2018-07-30T10:06:21.657Z,3.10
2018-07-30T10:08:50.659Z,2.90
2018-07-30T10:11:19.710Z,3.33
2018-07-30T10:13:48.792Z,3.10
2018-07-30T10:16:17.615Z,2.90
2018-07-30T10:18:46.625Z,3.20
2018-07-30T10:21:15.672Z,3.52
2018-07-30T10:23:44.572Z,3.20
2018-07-30T10:26:13.471Z,3.10
2018-07-30T10:28:42.298Z,3.00
2018-07-30T10:31:11.232Z,3.17
2018-07-30T10:33:40.055Z,3.10
2018-07-30T10:36:09.004Z,3.25
2018-07-30T10:38:38.072Z,2.90
2018-07-30T10:41:07.135Z,3.25
2018-07-30T10:43:36.219Z,3.25
2018-07-30T10:46:05.019Z,2.80
2018-07-30T10:48:33.723Z,3.10
2018-07-30T10:51:02.680Z,2.90
2018-07-30T10:53:31.499Z,2.83
2018-07-30T10:56:00.452Z,2.83
2018-07-30T10:58:29.523Z,3.02
2018-07-30T11:00:58.627Z,2.80
2018-07-30T11:03:27.687Z,3.15
2018-07-30T11:05:56.825Z,3.35
2018-07-30T11:08:25.923Z,3.47
2018-07-30T11:10:54.999Z,2.90
2018-07-30T11:13:24.092Z,3.05
2018-07-30T11:15:53.223Z,3.12
2018-07-30T11:18:22.032Z,3.25
2018-07-30T11:20:51.003Z,3.40
2018-07-30T11:23:20.183Z,3.25
2018-07-30T11:25:49.312Z,3.20
2018-07-30T11:28:18.175Z,3.27
2018-07-30T11:30:47.127Z,3.33
2018-07-30T11:33:16.192Z,3.27
2018-07-30T11:35:45.026Z,3.42
2018-07-30T11:38:13.707Z,3.12
2018-07-30T11:40:42.435Z,3.15
2018-07-30T11:43:11.367Z,3.70
2018-07-30T11:45:40.443Z,3.00
2018-07-30T11:48:09.496Z,3.05
2018-07-30T11:50:38.576Z,3.00
2018-07-30T11:53:07.636Z,3.30
2018-07-30T11:55:36.716Z,3.02
2018-07-30T11:58:06.607Z,3.25
2018-07-30T12:00:35.689Z,3.58
2018-07-30T12:03:04.776Z,3.12
2018-07-30T12:05:33.843Z,3.08
2018-07-30T12:08:02.679Z,3.20
2018-07-30T12:10:31.631Z,3.50
2018-07-30T12:13:00.684Z,3.20
2018-07-30T12:15:29.761Z,3.52
2018-07-30T12:17:58.846Z,3.33
2018-07-30T12:20:27.919Z,3.50
2018-07-30T12:22:56.851Z,3.30
2018-07-30T12:25:25.808Z,3.05
2018-07-30T12:27:54.614Z,2.83
2018-07-30T12:30:23.398Z,3.17
2018-07-30T12:32:52.280Z,3.22
2018-07-30T12:35:21.344Z,3.30
2018-07-30T12:37:50.411Z,3.25
2018-07-30T12:40:19.505Z,2.95
2018-07-30T12:42:48.569Z,3.20
2018-07-30T12:45:21.884Z,3.50
2018-07-30T12:47:50.940Z,3.50
2018-07-30T12:50:19.805Z,3.15
2018-07-30T12:52:48.721Z,3.37
2018-07-30T12:55:17.775Z,3.37
2018-07-30T12:57:46.847Z,3.27
2018-07-30T13:00:15.912Z,3.08
2018-07-30T13:02:44.744Z,2.90
2018-07-30T13:05:13.943Z,3.20
2018-07-30T13:07:43.040Z,2.70
2018-07-30T13:10:12.092Z,2.83
2018-07-30T13:12:41.019Z,2.90
2018-07-30T13:15:10.048Z,2.85
2018-07-30T13:17:39.119Z,3.02
2018-07-30T13:20:08.251Z,2.70
2018-07-30T13:22:37.327Z,2.67
2018-07-30T13:25:06.485Z,2.80
2018-07-30T13:27:36.143Z,2.42
2018-07-30T13:30:05.944Z,2.42
2018-07-30T13:32:35.049Z,2.80
2018-07-30T13:35:04.101Z,2.83
2018-07-30T13:37:33.176Z,2.75
2018-07-30T13:40:02.316Z,2.75
2018-07-30T13:42:31.384Z,2.52
2018-07-30T13:45:00.532Z,2.70
2018-07-30T13:47:29.612Z,2.75
2018-07-30T13:49:58.672Z,2.55
2018-07-30T13:52:27.498Z,2.55
2018-07-30T13:54:56.432Z,2.42
2018-07-30T13:57:25.521Z,2.22
2018-07-30T13:59:54.592Z,2.27
2018-07-30T14:02:23.687Z,2.35
2018-07-30T14:04:52.756Z,2.45
2018-07-30T14:07:21.871Z,2.77
2018-07-30T14:09:50.972Z,2.37
2018-07-30T14:12:20.840Z,2.50
2018-07-30T14:14:49.928Z,2.30
2018-07-30T14:17:19.004Z,2.40
2018-07-30T14:19:48.091Z,2.67
2018-07-30T14:22:17.583Z,2.58
2018-07-30T14:24:46.903Z,2.50
2018-07-30T14:27:15.960Z,2.60
2018-07-30T14:29:45.086Z,2.40
2018-07-30T14:32:14.143Z,2.50
2018-07-30T14:34:43.215Z,2.52
2018-07-30T14:37:12.276Z,2.70
2018-07-30T14:39:41.356Z,2.40
2018-07-30T14:42:10.412Z,2.25
2018-07-30T14:44:39.234Z,2.47
2018-07-30T14:47:07.919Z,2.05
2018-07-30T14:49:36.629Z,2.37
2018-07-30T14:52:05.568Z,2.62
2018-07-30T14:54:34.655Z,2.30
2018-07-30T14:57:03.712Z,2.35
2018-07-30T14:59:32.830Z,2.45
2018-07-30T15:02:01.872Z,2.70
2018-07-30T15:04:30.948Z,2.17
2018-07-30T15:07:00.003Z,2.50
2018-07-30T15:09:29.083Z,2.58
2018-07-30T15:11:58.139Z,2.25
2018-07-30T15:14:27.014Z,2.33
2018-07-30T15:16:55.960Z,2.30
2018-07-30T15:19:25.044Z,2.37
2018-07-30T15:21:54.100Z,2.15
2018-07-30T15:24:23.180Z,2.15
2018-07-30T15:26:52.244Z,2.40
2018-07-30T15:29:21.320Z,2.60
2018-07-30T15:31:50.128Z,2.35
2018-07-30T15:34:19.072Z,2.50
2018-07-30T15:36:48.133Z,2.40
2018-07-30T15:39:17.211Z,2.05
2018-07-30T15:41:46.283Z,2.27
2018-07-30T15:44:15.091Z,2.27
2018-07-30T15:46:44.111Z,2.33
2018-07-30T15:49:13.251Z,2.62
2018-07-30T15:51:42.318Z,2.17
2018-07-30T15:54:11.375Z,2.45
2018-07-30T15:56:40.455Z,2.60
2018-07-30T15:59:09.268Z,2.30
2018-07-30T16:01:38.221Z,2.30
2018-07-30T16:04:07.279Z,2.45
2018-07-30T16:06:36.356Z,2.35
2018-07-30T16:09:07.092Z,2.40
2018-07-30T16:11:36.520Z,2.90
2018-07-30T16:14:05.623Z,2.37
2018-07-30T16:16:34.723Z,2.70
2018-07-30T16:19:03.785Z,2.60
2018-07-30T16:21:32.860Z,2.60
2018-07-30T16:24:01.936Z,2.40
2018-07-30T16:26:31.027Z,2.67
2018-07-30T16:29:00.084Z,2.50
2018-07-30T16:31:29.168Z,2.50
2018-07-30T16:33:58.268Z,2.45
2018-07-30T16:36:27.343Z,2.20
2018-07-30T16:38:56.395Z,2.58
2018-07-30T16:41:25.825Z,2.60
2018-07-30T16:43:54.871Z,2.80
2018-07-30T16:46:23.960Z,2.50
2018-07-30T16:48:53.161Z,2.55
2018-07-30T16:51:22.235Z,2.50
2018-07-30T16:53:51.317Z,2.55
2018-07-30T16:56:20.387Z,2.50
2018-07-30T16:58:49.558Z,2.70
2018-07-30T17:01:18.742Z,2.50
2018-07-30T17:03:47.796Z,2.60
2018-07-30T17:06:16.618Z,2.60
2018-07-30T17:08:45.552Z,2.55
2018-07-30T17:11:14.646Z,2.85
2018-07-30T17:13:43.699Z,2.72
2018-07-30T17:16:12.775Z,2.75
2018-07-30T17:18:41.695Z,2.92
2018-07-30T17:21:10.383Z,2.77
2018-07-30T17:23:39.331Z,2.60
2018-07-30T17:26:08.383Z,2.52
2018-07-30T17:28:37.467Z,2.87
2018-07-30T17:31:06.516Z,3.05
2018-07-30T17:33:35.592Z,2.55
2018-07-30T17:36:04.652Z,2.70
2018-07-30T17:38:33.723Z,2.72
2018-07-30T17:41:02.802Z,2.72
2018-07-30T17:43:31.886Z,2.52
2018-07-30T17:46:00.950Z,2.80
2018-07-30T17:48:30.080Z,2.90
2018-07-30T17:50:59.139Z,3.00
2018-07-30T17:53:28.215Z,2.85
2018-07-30T17:55:57.275Z,2.65
2018-07-30T17:58:26.375Z,2.52
2018-07-30T18:00:55.427Z,2.55
2018-07-30T18:03:24.504Z,2.50
2018-07-30T18:05:53.563Z,2.65
2018-07-30T18:08:23.649Z,2.85
2018-07-30T18:10:52.732Z,2.87
2018-07-30T18:13:21.810Z,2.80
2018-07-30T18:15:50.867Z,2.75
2018-07-30T18:18:19.956Z,3.12
2018-07-30T18:20:49.180Z,2.72
2018-07-30T18:23:18.351Z,3.10
2018-07-30T18:25:47.376Z,3.08
2018-07-30T18:28:16.479Z,3.15
2018-07-30T18:30:45.559Z,3.20
2018-07-30T18:33:14.632Z,2.92
2018-07-30T18:35:43.687Z,2.98
2018-07-30T18:38:12.760Z,2.80
2018-07-30T18:40:41.860Z,3.05
2018-07-30T18:43:11.368Z,3.30
2018-07-30T18:45:40.199Z,3.08
2018-07-30T18:48:09.191Z,3.20
2018-07-30T18:50:38.248Z,3.30
2018-07-30T18:53:07.055Z,3.50
2018-07-30T18:55:35.770Z,3.47
2018-07-30T18:58:04.701Z,3.27
2018-07-30T19:00:33.523Z,3.47
2018-07-30T19:03:02.275Z,3.60
2018-07-30T19:05:31.287Z,3.30
2018-07-30T19:08:00.387Z,3.85
2018-07-30T19:10:29.247Z,3.42
2018-07-30T19:12:58.683Z,3.95
2018-07-30T19:15:27.504Z,3.67
2018-07-30T19:17:56.463Z,4.37
2018-07-30T19:20:25.282Z,4.00
2018-07-30T19:22:53.954Z,3.80
2018-07-30T19:25:22.904Z,3.60
2018-07-30T19:27:51.977Z,3.50
2018-07-30T19:30:21.060Z,3.52
2018-07-30T19:32:50.111Z,3.58
2018-07-30T19:35:18.940Z,3.67
2018-07-30T19:37:47.610Z,3.40
2018-07-30T19:40:16.551Z,3.70
2018-07-30T19:42:45.620Z,3.80
2018-07-30T19:45:14.689Z,3.80
2018-07-30T19:47:43.491Z,3.62
2018-07-30T19:50:12.447Z,4.17
2018-07-30T19:52:41.499Z,4.42
2018-07-30T19:55:10.672Z,4.10
2018-07-30T19:57:39.768Z,4.47
2018-07-30T20:00:09.323Z,4.37
2018-07-30T20:02:38.478Z,4.10
2018-07-30T20:05:08.236Z,4.15
2018-07-30T20:07:37.376Z,4.40
2018-07-30T20:10:06.499Z,4.00
2018-07-30T20:12:35.593Z,4.20
2018-07-30T20:15:05.321Z,3.77
2018-07-30T20:17:34.396Z,4.33
2018-07-30T20:20:03.479Z,4.30
2018-07-30T20:22:32.300Z,4.85
2018-07-30T20:25:01.377Z,4.37
2018-07-30T20:27:30.407Z,4.70
2018-07-30T20:29:59.500Z,4.57
2018-07-30T20:32:28.569Z,4.70
2018-07-30T20:34:57.627Z,4.70
2018-07-30T20:37:26.699Z,4.70
2018-07-30T20:39:55.793Z,4.40
2018-07-30T20:42:24.867Z,4.73
2018-07-30T20:44:53.929Z,4.80
2018-07-30T20:47:23.081Z,4.53
2018-07-30T20:49:52.139Z,4.87
2018-07-30T20:52:21.239Z,4.60
2018-07-30T20:54:50.294Z,5.10
2018-07-30T20:57:19.367Z,4.93
2018-07-30T20:59:48.423Z,4.87
2018-07-30T21:02:17.503Z,4.97
2018-07-30T21:04:46.566Z,4.83
2018-07-30T21:07:15.643Z,4.50
2018-07-30T21:09:44.695Z,4.37
2018-07-30T21:12:13.772Z,5.00
2018-07-30T21:14:42.823Z,4.33
2018-07-30T21:17:11.955Z,4.53
2018-07-30T21:19:41.019Z,4.97
2018-07-30T21:22:10.111Z,5.30
2018-07-30T21:24:39.167Z,5.00
2018-07-30T21:27:07.987Z,5.07
2018-07-30T21:29:36.923Z,4.93
2018-07-30T21:32:06.203Z,4.60
2018-07-30T21:34:35.266Z,4.60
2018-07-30T21:37:04.343Z,4.80
2018-07-30T21:39:33.406Z,4.73
2018-07-30T21:42:02.492Z,5.23
2018-07-30T21:44:31.555Z,4.90
2018-07-30T21:47:00.627Z,5.27
2018-07-30T21:49:29.470Z,4.50
2018-07-30T21:51:58.536Z,4.90
2018-07-30T21:54:27.597Z,4.90
2018-07-30T21:56:56.647Z,4.80
2018-07-30T21:59:25.728Z,4.93
2018-07-30T22:01:54.788Z,4.70
2018-07-30T22:04:23.864Z,4.70
2018-07-30T22:06:52.931Z,4.50
2018-07-30T22:09:22.008Z,4.70
2018-07-30T22:11:51.068Z,4.80
2018-07-30T22:14:20.619Z,4.63
2018-07-30T22:16:49.315Z,4.23
2018-07-30T22:19:18.267Z,4.43
2018-07-30T22:21:47.067Z,4.40
2018-07-30T22:24:16.015Z,4.30
2018-07-30T22:26:45.077Z,4.27
2018-07-30T22:29:14.304Z,4.60
2018-07-30T22:31:43.481Z,4.80
2018-07-30T22:34:12.563Z,4.40
2018-07-30T22:36:41.781Z,4.80
2018-07-30T22:39:12.125Z,4.23
2018-07-30T22:41:41.208Z,4.40
2018-07-30T22:44:10.283Z,4.37
2018-07-30T22:46:39.347Z,4.30
2018-07-30T22:49:08.219Z,4.87
2018-07-30T22:51:37.163Z,4.77
2018-07-30T22:54:06.456Z,4.17
2018-07-30T22:56:35.548Z,4.50
2018-07-30T22:59:04.783Z,5.00
2018-07-30T23:01:33.840Z,4.60
2018-07-30T23:04:02.911Z,4.53
2018-07-30T23:06:31.959Z,4.20
2018-07-30T23:09:01.046Z,4.30
2018-07-30T23:11:30.099Z,4.80
2018-07-30T23:13:59.175Z,4.93
2018-07-30T23:16:28.267Z,4.50
2018-07-30T23:18:57.343Z,4.20
2018-07-30T23:21:26.400Z,4.37
2018-07-30T23:23:55.267Z,4.53
2018-07-30T23:26:24.215Z,4.47
2018-07-30T23:28:53.335Z,4.90
2018-07-30T23:31:22.396Z,4.70
2018-07-30T23:33:51.579Z,4.73
2018-07-30T23:36:20.446Z,4.63
2018-07-30T23:38:49.379Z,4.70
2018-07-30T23:41:18.455Z,5.00
2018-07-30T23:43:47.503Z,4.97
2018-07-30T23:46:16.579Z,4.90
2018-07-30T23:48:45.630Z,4.97
2018-07-30T23:51:14.703Z,5.37
2018-07-30T23:53:43.791Z,4.77
2018-07-30T23:56:12.873Z,5.10
2018-07-30T23:58:41.927Z,4.80
